Time;durP1;ratioP1;P1;durP2;ratioP2;P2;SDS_P1;SDS_P2;PMS_P1;PMS_P2;Temp;Humidity;BMP_temperature;BMP_pressure;BME280_temperature;BME280_humidity;BME280_pressure;Samples;Min_cycle;Max_cycle;Signal;HPM_P1;HPM_P2
2020/12/24 00:02:25;;;;;;;13.95;3.08;;;9.70;99.90;;;;;;4937343;29;20048;-77
2020/12/24 00:04:51;;;;;;;9.82;3.15;;;9.60;99.90;;;;;;4938533;29;20143;-77
2020/12/24 00:07:18;;;;;;;7.30;3.05;;;9.60;99.90;;;;;;4938427;29;20138;-77
2020/12/24 00:09:45;;;;;;;9.48;2.95;;;9.60;99.90;;;;;;4938567;29;20054;-77
2020/12/24 00:12:12;;;;;;;10.23;3.30;;;9.60;99.90;;;;;;4937644;29;20055;-77
2020/12/24 00:14:38;;;;;;;7.05;2.97;;;9.60;99.90;;;;;;4937122;29;20134;-78
2020/12/24 00:17:05;;;;;;;12.20;3.05;;;9.50;99.90;;;;;;4936964;29;20126;-78
2020/12/24 00:19:31;;;;;;;7.47;2.67;;;9.50;99.90;;;;;;4937693;29;20134;-78
2020/12/24 00:21:58;;;;;;;10.95;3.55;;;9.50;99.90;;;;;;4937207;29;20134;-77
2020/12/24 00:24:25;;;;;;;10.30;3.20;;;9.50;99.90;;;;;;4939983;29;20134;-78
2020/12/24 00:26:51;;;;;;;12.18;3.45;;;9.50;99.90;;;;;;4942739;29;20111;-80
2020/12/24 00:29:18;;;;;;;8.48;2.78;;;9.50;99.90;;;;;;4946015;29;20087;-79
2020/12/24 00:31:44;;;;;;;9.57;3.38;;;9.50;99.90;;;;;;4948025;29;20099;-81
2020/12/24 00:34:11;;;;;;;9.63;2.92;;;9.60;99.90;;;;;;4947004;29;20086;-79
2020/12/24 00:36:37;;;;;;;9.38;3.05;;;9.60;99.90;;;;;;4943176;29;20107;-78
2020/12/24 00:39:04;;;;;;;6.95;2.92;;;9.60;99.90;;;;;;4941686;29;20522;-79
2020/12/24 00:41:31;;;;;;;11.30;3.55;;;9.60;99.90;;;;;;4939960;29;20465;-80
2020/12/24 00:43:58;;;;;;;7.75;2.92;;;9.70;99.90;;;;;;4940628;29;20126;-79
2020/12/24 00:46:24;;;;;;;9.73;2.97;;;9.70;99.90;;;;;;4941532;29;20135;-79
2020/12/24 00:48:50;;;;;;;11.32;3.00;;;9.70;99.90;;;;;;4941517;29;20126;-79
2020/12/24 00:51:17;;;;;;;7.10;3.17;;;9.70;99.90;;;;;;4944102;29;20044;-80
2020/12/24 00:53:43;;;;;;;9.75;2.83;;;9.70;99.90;;;;;;4944653;29;20131;-78
2020/12/24 00:56:10;;;;;;;10.40;3.05;;;9.70;99.90;;;;;;4946872;29;20087;-78
2020/12/24 00:58:38;;;;;;;16.17;3.97;;;9.70;99.90;;;;;;4944409;29;20419;-78
2020/12/24 01:01:05;;;;;;;10.82;3.72;;;9.70;99.90;;;;;;4943611;29;20111;-77
2020/12/24 01:03:32;;;;;;;9.63;2.67;;;9.70;99.90;;;;;;4944804;29;20079;-79
2020/12/24 01:05:58;;;;;;;11.82;3.30;;;9.70;99.90;;;;;;4944575;29;20098;-78
2020/12/24 01:08:24;;;;;;;11.02;3.47;;;9.70;99.90;;;;;;4944961;29;20514;-77
2020/12/24 01:10:52;;;;;;;11.35;3.15;;;9.60;99.90;;;;;;4946034;29;20107;-79
2020/12/24 01:13:19;;;;;;;14.85;4.30;;;9.60;99.90;;;;;;4945203;29;20052;-79
2020/12/24 01:15:47;;;;;;;20.85;3.65;;;9.60;99.90;;;;;;4945165;29;20082;-79
2020/12/24 01:18:13;;;;;;;9.52;3.38;;;9.60;99.90;;;;;;4944540;29;20106;-79
2020/12/24 01:20:39;;;;;;;11.35;3.40;;;9.50;99.90;;;;;;4941224;29;20125;-78
2020/12/24 01:23:06;;;;;;;9.82;3.47;;;9.50;99.90;;;;;;4941550;29;20068;-79
2020/12/24 01:25:32;;;;;;;12.98;3.90;;;9.60;99.90;;;;;;4940872;29;20051;-79
2020/12/24 01:27:59;;;;;;;14.10;3.88;;;9.60;99.90;;;;;;4940340;29;20051;-79
2020/12/24 01:30:26;;;;;;;15.35;3.45;;;9.50;99.90;;;;;;4940392;29;20512;-79
2020/12/24 01:32:53;;;;;;;10.73;3.15;;;9.50;99.90;;;;;;4940020;29;20076;-79
2020/12/24 01:35:20;;;;;;;11.13;3.13;;;9.50;99.90;;;;;;4938093;29;20056;-77
2020/12/24 01:37:47;;;;;;;7.82;2.83;;;9.60;99.90;;;;;;4937900;29;20134;-78
2020/12/24 01:40:13;;;;;;;10.43;2.90;;;9.70;99.90;;;;;;4938701;29;20070;-77
2020/12/24 01:42:39;;;;;;;11.32;3.25;;;9.70;99.90;;;;;;4939023;29;20150;-78
2020/12/24 01:45:06;;;;;;;9.32;3.15;;;9.70;99.90;;;;;;4939815;29;20056;-78
2020/12/24 01:47:32;;;;;;;11.48;3.30;;;9.70;99.90;;;;;;4938997;29;20083;-78
2020/12/24 01:50:00;;;;;;;9.73;3.00;;;9.70;99.90;;;;;;4938353;29;20453;-79
2020/12/24 01:52:32;;;;;;;12.30;3.10;;;9.70;99.90;;;;;;4938071;29;20107;-76
2020/12/24 01:55:00;;;;;;;12.63;3.30;;;9.70;99.90;;;;;;4938121;29;20095;-78
2020/12/24 01:57:26;;;;;;;8.63;2.90;;;9.60;99.90;;;;;;4938756;29;20134;-79
2020/12/24 01:59:55;;;;;;;6.80;3.08;;;9.60;99.90;;;;;;4937310;29;20134;-79
2020/12/24 02:02:21;;;;;;;10.90;3.65;;;9.50;99.90;;;;;;4936320;29;20131;-78
2020/12/24 02:04:48;;;;;;;9.50;3.22;;;9.50;99.90;;;;;;4937812;29;20150;-78
2020/12/24 02:07:16;;;;;;;8.60;2.95;;;9.40;99.90;;;;;;4939551;29;20573;-78
2020/12/24 02:09:45;;;;;;;8.20;3.00;;;9.30;99.90;;;;;;4938962;29;20055;-78
2020/12/24 02:12:12;;;;;;;9.35;3.10;;;9.20;99.90;;;;;;4941960;29;20055;-79
2020/12/24 02:14:39;;;;;;;10.95;2.72;;;9.10;99.90;;;;;;4943191;29;20142;-79
2020/12/24 02:17:05;;;;;;;11.15;3.17;;;9.10;99.90;;;;;;4940104;29;20099;-79
2020/12/24 02:19:31;;;;;;;9.85;2.60;;;9.10;99.90;;;;;;4938514;29;20460;-79
2020/12/24 02:21:59;;;;;;;11.00;2.90;;;9.10;99.90;;;;;;4940190;29;20127;-79
2020/12/24 02:24:25;;;;;;;7.25;2.70;;;9.10;99.90;;;;;;4940919;29;20183;-80
2020/12/24 02:26:51;;;;;;;8.88;3.08;;;9.10;99.90;;;;;;4940361;29;20090;-80
2020/12/24 02:29:18;;;;;;;6.47;2.17;;;9.10;99.90;;;;;;4939356;29;20107;-80
2020/12/24 02:31:44;;;;;;;10.63;3.40;;;9.10;99.90;;;;;;4954714;29;20043;-80
2020/12/24 02:34:10;;;;;;;8.00;2.67;;;9.20;99.90;;;;;;4956515;29;20048;-79
2020/12/24 02:36:37;;;;;;;9.95;2.92;;;9.10;99.90;;;;;;4957130;29;20106;-79
2020/12/24 02:39:04;;;;;;;10.25;2.95;;;9.10;99.90;;;;;;4949037;29;20495;-79
2020/12/24 02:41:31;;;;;;;7.35;3.15;;;9.10;99.90;;;;;;4947765;29;20075;-78
2020/12/24 02:44:00;;;;;;;6.53;3.22;;;9.00;99.90;;;;;;4981332;23;20498;-80
2020/12/24 02:46:26;;;;;;;6.68;3.00;;;9.10;99.90;;;;;;4998074;28;20136;-82
2020/12/24 02:48:53;;;;;;;9.88;2.85;;;9.10;99.90;;;;;;4998431;28;20089;-80
2020/12/24 02:51:19;;;;;;;12.80;3.03;;;9.10;99.90;;;;;;4997793;28;20074;-82
2020/12/24 02:53:45;;;;;;;7.20;2.83;;;9.10;99.90;;;;;;4997758;28;20129;-80
2020/12/24 02:56:13;;;;;;;10.93;2.72;;;9.10;99.90;;;;;;4998904;28;20349;-82
2020/12/24 02:58:39;;;;;;;7.47;3.00;;;9.10;99.90;;;;;;4997930;28;20106;-81
2020/12/24 03:01:06;;;;;;;8.55;3.15;;;9.10;99.90;;;;;;4998474;28;20088;-79
2020/12/24 03:03:32;;;;;;;12.18;2.72;;;9.20;99.90;;;;;;4998335;28;20054;-81
2020/12/24 03:05:58;;;;;;;10.13;2.85;;;9.10;99.90;;;;;;4997507;28;20086;-79
2020/12/24 03:08:25;;;;;;;8.73;2.70;;;9.20;99.90;;;;;;4997365;28;20086;-81
2020/12/24 03:10:51;;;;;;;10.55;2.92;;;9.10;99.90;;;;;;4998027;28;20133;-80
2020/12/24 03:13:19;;;;;;;7.93;2.80;;;9.10;99.90;;;;;;5000249;28;20085;-79
2020/12/24 03:15:45;;;;;;;9.02;2.63;;;9.10;99.90;;;;;;5000018;28;20077;-79
2020/12/24 03:18:11;;;;;;;10.00;2.63;;;9.00;99.90;;;;;;4997099;28;20137;-80
2020/12/24 03:20:38;;;;;;;9.38;3.65;;;9.10;99.90;;;;;;4998723;28;20110;-81
2020/12/24 03:23:04;;;;;;;8.18;2.60;;;9.10;99.90;;;;;;4999213;28;20061;-81
2020/12/24 03:25:30;;;;;;;9.82;2.88;;;9.10;99.90;;;;;;4998307;28;20514;-81
2020/12/24 03:27:57;;;;;;;6.82;2.65;;;9.10;99.90;;;;;;4997938;28;20082;-80
2020/12/24 03:30:24;;;;;;;8.25;3.03;;;9.10;99.90;;;;;;4997788;28;20070;-80
2020/12/24 03:32:50;;;;;;;10.18;2.60;;;9.10;99.90;;;;;;4997523;28;20157;-81
2020/12/24 03:35:17;;;;;;;12.88;3.10;;;9.10;99.90;;;;;;4997745;28;20085;-80
2020/12/24 03:37:43;;;;;;;10.55;2.85;;;9.20;99.90;;;;;;4997909;28;20050;-81
2020/12/24 03:40:10;;;;;;;13.15;3.22;;;9.20;99.90;;;;;;4997311;28;20148;-80
2020/12/24 03:42:36;;;;;;;8.52;2.60;;;9.20;99.90;;;;;;4996226;28;20090;-81
2020/12/24 03:45:03;;;;;;;8.77;2.85;;;9.20;99.90;;;;;;4996770;28;20058;-79
2020/12/24 03:47:30;;;;;;;8.77;3.10;;;9.20;99.90;;;;;;4997324;28;20086;-81
2020/12/24 03:49:56;;;;;;;8.98;3.05;;;9.20;99.90;;;;;;4998049;28;20225;-80
2020/12/24 03:52:23;;;;;;;12.98;2.88;;;9.10;99.90;;;;;;4996675;28;20499;-80
2020/12/24 03:54:49;;;;;;;9.10;2.95;;;9.10;99.90;;;;;;4998168;28;20058;-80
2020/12/24 03:57:16;;;;;;;12.27;3.40;;;9.10;99.90;;;;;;4997473;28;20141;-81
2020/12/24 03:59:42;;;;;;;12.77;2.88;;;9.10;99.90;;;;;;4995773;28;20085;-80
2020/12/24 04:02:08;;;;;;;10.18;3.17;;;9.10;99.90;;;;;;4995077;28;20078;-80
2020/12/24 04:04:36;;;;;;;9.75;3.20;;;9.10;99.90;;;;;;4999352;28;20082;-81
2020/12/24 04:07:02;;;;;;;8.85;2.85;;;9.10;99.90;;;;;;5001321;28;20082;-80
2020/12/24 04:09:28;;;;;;;8.90;2.90;;;9.10;99.90;;;;;;5005972;28;20051;-80
2020/12/24 04:11:55;;;;;;;11.07;3.22;;;9.10;99.90;;;;;;5000981;28;20507;-82
2020/12/24 04:14:21;;;;;;;11.27;3.78;;;9.10;99.90;;;;;;5001350;28;20081;-80
2020/12/24 04:16:47;;;;;;;9.32;3.13;;;9.10;99.90;;;;;;5000132;28;20415;-83
2020/12/24 04:20:14;;;;;;;12.50;4.07;;;9.10;99.90;;;;;;5001377;28;20101;-82
2020/12/24 04:23:12;;;;;;;9.55;3.40;;;9.20;99.90;;;;;;4947577;29;20123;-83
2020/12/24 04:25:58;;;;;;;12.23;3.30;;;9.20;99.90;;;;;;4958140;29;20071;-83
2020/12/24 04:28:50;;;;;;;12.25;5.07;;;9.10;99.90;;;;;;4959412;29;20051;-83
2020/12/24 04:31:54;;;;;;;15.77;4.63;;;9.10;99.90;;;;;;4960871;29;20055;-83
2020/12/24 04:34:48;;;;;;;;;;;9.10;99.90;;;;;;5006805;28;20076;-84
2020/12/24 04:37:38;;;;;;;9.80;3.67;;;9.10;99.90;;;;;;5016124;28;20334;-83
2020/12/24 04:40:47;;;;;;;14.00;3.95;;;9.00;99.90;;;;;;5015613;28;20034;-86
2020/12/24 04:44:31;;;;;;;;;;;;;;;;;;;;;
2020/12/24 04:47:38;;;;;;;14.13;3.83;;;9.00;99.90;;;;;;4963527;29;20130;-84
2020/12/24 04:53:46;;;;;;;11.27;4.20;;;9.10;99.90;;;;;;4885976;29;20061;-85
2020/12/24 04:56:50;;;;;;;9.65;3.83;;;9.00;99.90;;;;;;4812150;29;20460;-81
2020/12/24 05:00:03;;;;;;;;;;;;;;;;;;;;;
2020/12/24 05:02:35;;;;;;;;;;;9.10;99.90;;;;;;4849192;29;20068;-82
2020/12/24 05:05:04;;;;;;;11.20;3.38;;;9.10;99.90;;;;;;4925361;28;19923;-79
2020/12/24 05:07:30;;;;;;;11.07;3.42;;;9.10;99.90;;;;;;4998735;28;20054;-79
2020/12/24 05:09:57;;;;;;;9.60;3.05;;;9.00;99.90;;;;;;4997470;28;20082;-79
2020/12/24 05:12:30;;;;;;;8.43;2.83;;;9.00;99.90;;;;;;4996262;28;20117;-79
2020/12/24 05:14:57;;;;;;;8.10;2.58;;;9.00;99.90;;;;;;4997093;28;20144;-81
2020/12/24 05:17:24;;;;;;;6.80;3.10;;;9.00;99.90;;;;;;4997323;28;20086;-80
2020/12/24 05:20:02;;;;;;;13.73;3.15;;;9.00;99.90;;;;;;4997601;28;20140;-82
2020/12/24 05:22:29;;;;;;;9.57;3.40;;;9.00;99.90;;;;;;4997242;28;20101;-82
2020/12/24 05:25:06;;;;;;;10.55;3.03;;;9.00;99.90;;;;;;4997144;28;20081;-82
2020/12/24 05:27:33;;;;;;;8.10;3.00;;;9.00;99.90;;;;;;4993254;28;20062;-81
2020/12/24 05:30:00;;;;;;;9.45;3.20;;;9.00;99.90;;;;;;4997701;28;20082;-82
2020/12/24 05:32:27;;;;;;;9.52;3.20;;;8.90;99.90;;;;;;4999160;28;20521;-81
2020/12/24 05:35:09;;;;;;;8.38;3.00;;;9.00;99.90;;;;;;4998959;28;20050;-82
2020/12/24 05:37:35;;;;;;;7.35;2.80;;;8.90;99.90;;;;;;4999224;28;20470;-82
2020/12/24 05:40:18;;;;;;;9.63;2.83;;;9.00;99.90;;;;;;4998251;28;20133;-83
2020/12/24 05:42:52;;;;;;;8.52;3.17;;;9.00;99.90;;;;;;4998430;28;20129;-82
2020/12/24 05:46:00;;;;;;;12.02;3.03;;;8.90;99.90;;;;;;4999450;28;20204;-81
2020/12/24 05:48:54;;;;;;;10.80;2.63;;;8.90;99.90;;;;;;4984335;28;20084;-83
2020/12/24 05:51:56;;;;;;;9.93;3.70;;;8.90;99.90;;;;;;4999327;28;20058;-83
2020/12/24 05:57:35;;;;;;;7.82;3.60;;;8.80;99.90;;;;;;4998255;28;20069;-83
2020/12/24 06:03:42;;;;;;;7.75;2.40;;;8.80;99.90;;;;;;4977793;28;20487;-83
2020/12/24 06:06:19;;;;;;;6.85;2.88;;;8.80;99.90;;;;;;4977260;28;20083;-81
2020/12/24 06:08:47;;;;;;;6.32;2.28;;;8.80;99.90;;;;;;4995596;28;20114;-82
2020/12/24 06:11:13;;;;;;;7.57;2.50;;;8.80;99.90;;;;;;4998747;28;20042;-82
2020/12/24 06:13:41;;;;;;;7.78;2.25;;;8.70;99.90;;;;;;4999019;28;20080;-83
2020/12/24 06:16:10;;;;;;;8.48;2.55;;;8.70;99.90;;;;;;4998926;28;20085;-83
2020/12/24 06:18:38;;;;;;;5.10;2.28;;;8.70;99.90;;;;;;4998749;28;20078;-83
2020/12/24 06:21:14;;;;;;;6.95;2.58;;;8.70;99.90;;;;;;4998628;28;20158;-80
2020/12/24 06:23:46;;;;;;;5.05;2.88;;;8.70;99.90;;;;;;4998122;28;20058;-81
2020/12/24 06:26:20;;;;;;;9.75;2.78;;;8.70;99.90;;;;;;4998710;28;20110;-82
2020/12/24 06:28:50;;;;;;;8.38;2.90;;;8.70;99.90;;;;;;4998521;28;20507;-82
2020/12/24 06:31:19;;;;;;;5.65;2.15;;;8.70;99.90;;;;;;4997813;28;20082;-83
2020/12/24 06:33:46;;;;;;;8.73;2.30;;;8.70;99.90;;;;;;4997917;28;20312;-82
2020/12/24 06:36:31;;;;;;;7.13;2.70;;;8.70;99.90;;;;;;4997026;28;20114;-82
2020/12/24 06:38:58;;;;;;;5.50;1.85;;;8.70;99.90;;;;;;4998221;28;20089;-82
2020/12/24 06:41:29;;;;;;;5.60;2.03;;;8.70;99.90;;;;;;4997891;28;20050;-82
2020/12/24 06:43:56;;;;;;;4.88;1.75;;;8.70;99.90;;;;;;4998023;28;20050;-82
2020/12/24 06:46:23;;;;;;;9.02;2.50;;;8.80;99.90;;;;;;4998289;28;20470;-82
2020/12/24 06:49:04;;;;;;;7.00;2.55;;;8.80;99.90;;;;;;4998632;28;20089;-82
2020/12/24 06:51:46;;;;;;;6.95;2.28;;;8.80;99.90;;;;;;4997612;28;20185;-81
2020/12/24 06:54:24;;;;;;;6.43;2.30;;;8.80;99.90;;;;;;4996226;28;20537;-81
2020/12/24 06:57:10;;;;;;;5.13;1.90;;;8.80;99.90;;;;;;4997229;28;20140;-81
2020/12/24 06:59:37;;;;;;;6.35;2.00;;;8.80;99.90;;;;;;4998365;28;20085;-83
2020/12/24 07:02:05;;;;;;;7.22;2.10;;;8.90;99.90;;;;;;4997290;28;20130;-83
2020/12/24 07:04:40;;;;;;;5.82;1.90;;;8.90;99.90;;;;;;4997611;28;20137;-83
2020/12/24 07:07:07;;;;;;;5.63;2.33;;;9.00;99.90;;;;;;4997666;28;20197;-83
2020/12/24 07:09:47;;;;;;;5.80;2.20;;;9.00;99.90;;;;;;4998929;28;20096;-82
2020/12/24 07:12:33;;;;;;;5.90;2.70;;;9.00;99.90;;;;;;4999759;28;20102;-83
2020/12/24 07:15:19;;;;;;;4.57;2.42;;;9.00;99.90;;;;;;5001244;28;20113;-82
2020/12/24 07:17:46;;;;;;;4.88;2.05;;;9.00;99.90;;;;;;4997483;28;20089;-81
2020/12/24 07:20:16;;;;;;;7.78;2.50;;;9.00;99.90;;;;;;4998076;28;20050;-81
2020/12/24 07:22:44;;;;;;;4.32;2.42;;;9.00;99.90;;;;;;4996900;28;20050;-79
2020/12/24 07:25:11;;;;;;;6.80;3.17;;;9.00;99.90;;;;;;4996825;28;20471;-82
2020/12/24 07:27:47;;;;;;;7.93;2.80;;;9.00;99.90;;;;;;4997733;28;20414;-78
2020/12/24 07:30:13;;;;;;;7.18;2.65;;;8.90;99.90;;;;;;5000626;28;20077;-79
2020/12/24 07:32:40;;;;;;;5.05;2.17;;;8.90;99.90;;;;;;5000671;28;20043;-79
2020/12/24 07:35:06;;;;;;;5.63;3.38;;;8.90;99.90;;;;;;4999195;28;20088;-83
2020/12/24 07:37:33;;;;;;;7.05;2.67;;;8.90;99.90;;;;;;4999514;28;20429;-79
2020/12/24 07:39:59;;;;;;;4.15;1.88;;;8.80;99.90;;;;;;5004255;28;20088;-80
2020/12/24 07:42:27;;;;;;;6.15;2.20;;;8.80;99.90;;;;;;5003418;28;20185;-82
2020/12/24 07:44:53;;;;;;;7.85;2.03;;;8.80;99.90;;;;;;5001105;28;20046;-81
2020/12/24 07:47:20;;;;;;;5.35;2.42;;;8.80;99.90;;;;;;5000821;28;20124;-80
2020/12/24 07:49:50;;;;;;;4.15;2.17;;;8.90;99.90;;;;;;5000892;28;20137;-81
2020/12/24 07:52:16;;;;;;;5.20;2.30;;;8.80;99.90;;;;;;5000333;28;20145;-80
2020/12/24 07:54:43;;;;;;;3.65;2.17;;;8.80;99.90;;;;;;5001062;28;20493;-81
2020/12/24 07:57:09;;;;;;;4.30;1.98;;;8.80;99.90;;;;;;5001112;28;20129;-82
2020/12/24 07:59:37;;;;;;;7.40;2.17;;;8.80;99.90;;;;;;5000114;28;20165;-81
2020/12/24 08:02:04;;;;;;;6.40;2.10;;;8.70;99.90;;;;;;4999921;28;20058;-82
2020/12/24 08:04:30;;;;;;;5.53;2.22;;;8.80;99.90;;;;;;5000772;28;20507;-82
2020/12/24 08:06:57;;;;;;;6.43;2.58;;;8.80;99.90;;;;;;4999852;28;20093;-81
2020/12/24 08:09:23;;;;;;;5.45;2.17;;;8.80;99.90;;;;;;5001566;28;20101;-82
2020/12/24 08:11:54;;;;;;;7.93;3.00;;;8.80;99.90;;;;;;5000502;28;20558;-82
2020/12/24 08:14:21;;;;;;;4.72;2.30;;;8.70;99.90;;;;;;5000859;28;20591;-81
2020/12/24 08:16:50;;;;;;;5.18;2.42;;;8.70;99.90;;;;;;5000805;28;20061;-82
2020/12/24 08:19:23;;;;;;;6.22;2.55;;;8.70;99.90;;;;;;5000229;28;20154;-82
2020/12/24 08:21:58;;;;;;;6.75;2.22;;;8.70;99.90;;;;;;5002035;28;20050;-79
2020/12/24 08:24:25;;;;;;;4.53;2.30;;;8.60;99.90;;;;;;5001024;28;20129;-81
2020/12/24 08:26:52;;;;;;;6.80;2.75;;;8.60;99.90;;;;;;5000007;28;20089;-81
2020/12/24 08:29:19;;;;;;;4.60;2.60;;;8.70;99.90;;;;;;5000352;28;20118;-80
2020/12/24 08:31:47;;;;;;;7.13;2.22;;;8.60;99.90;;;;;;4999876;28;20502;-80
2020/12/24 08:34:14;;;;;;;4.50;2.05;;;8.60;99.90;;;;;;4999949;28;20412;-81
2020/12/24 08:36:45;;;;;;;5.25;2.47;;;8.70;99.90;;;;;;4999581;28;20133;-79
2020/12/24 08:39:13;;;;;;;5.00;2.60;;;8.60;99.90;;;;;;4999925;28;20090;-80
2020/12/24 08:41:42;;;;;;;4.30;2.08;;;8.60;99.90;;;;;;5000234;28;20238;-82
2020/12/24 08:44:09;;;;;;;6.20;2.33;;;8.70;99.90;;;;;;5012248;23;20476;-79
2020/12/24 08:46:35;;;;;;;5.13;2.70;;;8.70;99.90;;;;;;4980926;28;20093;-80
2020/12/24 08:49:18;;;;;;;9.02;3.05;;;8.80;99.90;;;;;;4980793;28;20053;-79
2020/12/24 08:51:45;;;;;;;5.20;2.90;;;8.90;99.90;;;;;;4978512;28;20141;-80
2020/12/24 08:54:13;;;;;;;8.13;3.00;;;8.90;99.90;;;;;;4980472;28;20105;-80
2020/12/24 08:56:42;;;;;;;8.43;5.68;;;8.90;99.90;;;;;;4980961;28;20078;-79
2020/12/24 08:59:09;;;;;;;6.50;3.28;;;8.80;99.90;;;;;;4980027;28;20126;-79
2020/12/24 09:01:40;;;;;;;6.90;3.22;;;8.90;99.90;;;;;;4977825;28;20051;-79
2020/12/24 09:04:18;;;;;;;6.82;3.58;;;8.80;99.90;;;;;;4976059;28;20110;-76
2020/12/24 09:06:45;;;;;;;6.78;3.63;;;8.80;99.90;;;;;;4977335;28;20081;-79
2020/12/24 09:09:22;;;;;;;8.15;3.58;;;8.80;99.90;;;;;;4978554;28;20085;-79
2020/12/24 09:11:49;;;;;;;6.75;3.65;;;8.80;99.90;;;;;;4979502;28;20082;-79
2020/12/24 09:14:18;;;;;;;8.10;3.72;;;8.80;99.90;;;;;;4979358;28;20086;-79
2020/12/24 09:16:54;;;;;;;7.88;3.88;;;8.80;99.90;;;;;;4979668;28;20113;-80
2020/12/24 09:19:21;;;;;;;6.28;4.07;;;8.80;99.90;;;;;;4980130;28;20133;-78
2020/12/24 09:21:52;;;;;;;10.02;5.80;;;8.80;99.90;;;;;;4978762;28;20138;-78
2020/12/24 09:24:19;;;;;;;7.15;5.40;;;8.60;99.90;;;;;;4979352;28;20055;-79
2020/12/24 09:26:47;;;;;;;7.88;5.72;;;8.20;99.90;;;;;;4979097;28;20480;-80
2020/12/24 09:29:15;;;;;;;5.90;4.78;;;8.00;99.90;;;;;;4981552;28;20078;-80
2020/12/24 09:31:41;;;;;;;7.82;5.32;;;7.80;99.90;;;;;;4980370;28;20046;-79
2020/12/24 09:34:08;;;;;;;9.48;5.00;;;7.60;99.90;;;;;;4981392;28;20051;-80
2020/12/24 09:36:35;;;;;;;6.22;5.38;;;7.50;99.90;;;;;;4980898;28;20141;-81
2020/12/24 09:39:02;;;;;;;8.13;5.60;;;7.40;99.90;;;;;;4982223;28;20499;-81
2020/12/24 09:41:29;;;;;;;6.72;5.53;;;7.30;99.90;;;;;;4981550;28;20058;-81
2020/12/24 09:43:55;;;;;;;6.63;5.60;;;7.20;99.90;;;;;;4981687;28;20063;-81
2020/12/24 09:46:24;;;;;;;7.38;5.78;;;7.20;99.90;;;;;;4981698;28;20082;-81
2020/12/24 09:48:50;;;;;;;8.00;5.57;;;7.20;99.90;;;;;;4982575;28;20047;-80
2020/12/24 09:51:16;;;;;;;7.93;4.80;;;7.10;99.90;;;;;;4982505;28;20078;-80
2020/12/24 09:53:44;;;;;;;5.18;4.50;;;7.10;99.90;;;;;;4981714;28;20075;-80
2020/12/24 09:56:10;;;;;;;4.88;4.38;;;7.10;99.90;;;;;;4981928;28;20109;-80
2020/12/24 09:58:36;;;;;;;5.53;4.63;;;7.00;99.90;;;;;;4982905;28;20051;-81
2020/12/24 10:01:03;;;;;;;5.38;4.30;;;6.90;99.90;;;;;;4981243;28;20077;-81
2020/12/24 10:03:29;;;;;;;5.22;4.18;;;6.90;99.90;;;;;;4981517;28;20230;-78
2020/12/24 10:05:55;;;;;;;6.07;4.25;;;6.80;99.90;;;;;;4978854;28;20162;-79
2020/12/24 10:08:22;;;;;;;4.22;3.80;;;6.80;99.90;;;;;;4978991;28;20090;-79
2020/12/24 10:10:49;;;;;;;4.63;3.55;;;6.70;99.90;;;;;;4978873;28;20082;-79
2020/12/24 10:13:15;;;;;;;4.25;3.67;;;6.60;99.90;;;;;;4978044;28;20082;-79
2020/12/24 10:15:44;;;;;;;3.50;3.20;;;6.60;99.90;;;;;;4979166;28;20149;-78
2020/12/24 10:18:10;;;;;;;2.88;2.65;;;6.50;99.90;;;;;;4979394;28;20086;-78
2020/12/24 10:20:37;;;;;;;2.42;2.20;;;6.40;99.90;;;;;;4979032;28;20106;-78
2020/12/24 10:23:07;;;;;;;3.67;2.40;;;6.40;99.90;;;;;;4979082;28;20490;-78
2020/12/24 10:28:33;;;;;;;2.13;1.80;;;6.20;99.90;;;;;;4958637;29;20202;-80
2020/12/24 10:30:59;;;;;;;2.75;2.15;;;6.20;99.90;;;;;;4971910;28;20071;-81
2020/12/24 10:33:26;;;;;;;2.65;2.17;;;6.20;99.90;;;;;;4972182;28;20103;-81
2020/12/24 10:35:52;;;;;;;2.65;1.92;;;6.10;99.90;;;;;;4970800;28;20097;-80
2020/12/24 10:38:20;;;;;;;1.85;1.70;;;6.10;99.90;;;;;;4972399;28;20102;-81
2020/12/24 10:40:46;;;;;;;2.80;1.80;;;6.10;99.90;;;;;;4971660;28;20106;-81
2020/12/24 10:43:12;;;;;;;3.97;1.80;;;6.20;99.90;;;;;;4969977;28;20105;-81
2020/12/24 10:45:40;;;;;;;1.92;1.73;;;6.10;99.90;;;;;;4969070;28;20113;-79
2020/12/24 10:48:06;;;;;;;2.13;1.75;;;6.10;99.90;;;;;;4969987;28;20492;-81
2020/12/24 10:50:33;;;;;;;1.70;1.60;;;6.20;99.90;;;;;;4970310;28;20089;-80
2020/12/24 10:52:59;;;;;;;2.63;2.25;;;6.10;99.90;;;;;;4970547;28;20138;-80
2020/12/24 10:55:25;;;;;;;3.47;2.28;;;6.10;99.90;;;;;;4969652;28;20075;-82
2020/12/24 10:57:52;;;;;;;2.78;2.20;;;6.20;99.90;;;;;;4969845;28;20055;-80
2020/12/24 11:00:18;;;;;;;2.53;2.17;;;6.20;99.90;;;;;;4979068;28;20145;-81
2020/12/24 11:02:45;;;;;;;2.78;2.10;;;6.30;99.90;;;;;;4987316;28;20043;-81
2020/12/24 11:05:12;;;;;;;2.00;1.63;;;6.40;99.90;;;;;;4989941;28;20054;-80
2020/12/24 11:07:38;;;;;;;2.45;1.85;;;6.50;99.90;;;;;;4987561;28;20101;-81
2020/12/24 11:10:05;;;;;;;2.17;1.98;;;6.50;99.90;;;;;;4990294;28;20174;-80
2020/12/24 11:12:31;;;;;;;4.03;2.05;;;6.50;99.90;;;;;;4970761;28;20078;-79
2020/12/24 11:14:58;;;;;;;2.25;2.05;;;6.50;99.90;;;;;;4973687;28;20058;-78
2020/12/24 11:17:24;;;;;;;5.68;2.25;;;6.60;99.90;;;;;;4970825;28;20047;-80
2020/12/24 11:19:52;;;;;;;3.35;1.95;;;6.60;99.90;;;;;;4976684;28;20083;-81
2020/12/24 11:22:18;;;;;;;2.40;2.10;;;6.70;99.90;;;;;;4988467;28;20189;-82
2020/12/24 11:24:44;;;;;;;2.35;2.08;;;6.70;99.90;;;;;;4989406;28;20086;-82
2020/12/24 11:27:11;;;;;;;3.90;2.65;;;6.70;99.90;;;;;;4973315;28;20070;-83
2020/12/24 11:29:37;;;;;;;4.80;3.08;;;6.70;99.90;;;;;;4975118;28;20078;-81
2020/12/24 11:32:07;;;;;;;4.43;3.42;;;6.70;99.90;;;;;;4971400;28;20082;-81
2020/12/24 11:34:33;;;;;;;4.55;3.20;;;6.70;99.90;;;;;;4965712;28;20544;-81
2020/12/24 11:37:01;;;;;;;4.63;3.70;;;6.80;99.90;;;;;;4972844;28;20549;-80
2020/12/24 11:39:28;;;;;;;5.40;3.80;;;6.80;99.90;;;;;;4972026;28;20186;-85
2020/12/24 11:41:55;;;;;;;5.50;4.10;;;6.80;99.90;;;;;;4974953;28;20090;-83
2020/12/24 11:44:21;;;;;;;5.70;4.35;;;6.80;99.90;;;;;;4970983;28;20154;-85
2020/12/24 11:46:47;;;;;;;5.60;4.40;;;6.80;99.90;;;;;;4973888;28;20130;-82
2020/12/24 11:49:14;;;;;;;6.32;4.40;;;6.80;99.90;;;;;;4971068;28;20179;-85
2020/12/24 11:51:40;;;;;;;6.43;5.45;;;6.70;99.90;;;;;;4975123;28;20098;-84
2020/12/24 11:54:07;;;;;;;11.60;8.57;;;6.60;99.90;;;;;;4971831;28;20170;-84
2020/12/24 11:56:34;;;;;;;18.67;13.23;;;6.60;99.90;;;;;;4973262;28;20085;-81
2020/12/24 11:59:00;;;;;;;19.60;13.30;;;6.60;99.90;;;;;;4977551;28;20422;-80
2020/12/24 12:01:26;;;;;;;21.15;14.82;;;6.50;99.90;;;;;;4964128;28;20047;-82
2020/12/24 12:03:53;;;;;;;21.25;14.57;;;6.50;99.90;;;;;;4978628;28;20074;-83
2020/12/24 12:06:23;;;;;;;19.33;14.68;;;6.60;99.90;;;;;;4983565;28;20106;-82
2020/12/24 12:08:50;;;;;;;20.92;14.45;;;6.60;99.90;;;;;;4986279;28;20059;-82
2020/12/24 12:11:17;;;;;;;23.27;15.05;;;6.60;99.90;;;;;;4990253;28;20058;-82
2020/12/24 12:13:47;;;;;;;22.02;14.07;;;6.50;99.90;;;;;;4990663;28;20128;-84
2020/12/24 12:16:13;;;;;;;24.77;16.27;;;6.50;99.90;;;;;;4990411;28;20050;-84
2020/12/24 12:18:39;;;;;;;24.05;15.68;;;6.40;99.90;;;;;;4985837;28;20055;-80
2020/12/24 12:21:06;;;;;;;25.45;15.88;;;6.30;99.90;;;;;;4975963;28;20050;-82
2020/12/24 12:23:33;;;;;;;22.92;14.45;;;6.30;99.90;;;;;;4976729;28;20066;-82
2020/12/24 12:26:01;;;;;;;26.35;14.98;;;6.30;99.90;;;;;;4974456;28;20053;-82
2020/12/24 12:28:28;;;;;;;20.25;12.50;;;6.30;99.90;;;;;;4976865;28;20044;-83
2020/12/24 12:30:55;;;;;;;17.33;11.48;;;6.30;99.90;;;;;;4980337;28;20043;-84
2020/12/24 12:33:21;;;;;;;13.98;9.50;;;6.20;99.90;;;;;;4979888;28;20484;-83
2020/12/24 12:35:48;;;;;;;13.10;9.02;;;6.10;99.90;;;;;;4988793;28;20171;-82
2020/12/24 12:38:15;;;;;;;12.02;8.82;;;6.10;99.90;;;;;;4980028;28;20082;-82
2020/12/24 12:40:42;;;;;;;10.65;7.68;;;6.20;99.90;;;;;;4971171;28;20050;-84
2020/12/24 12:43:08;;;;;;;9.68;7.20;;;6.20;99.90;;;;;;4967018;28;20047;-82
2020/12/24 12:45:35;;;;;;;9.25;6.55;;;6.10;99.90;;;;;;4967149;28;20051;-80
2020/12/24 12:48:02;;;;;;;7.28;5.90;;;6.10;99.90;;;;;;4977949;28;20391;-80
2020/12/24 12:50:28;;;;;;;9.57;6.00;;;6.20;99.90;;;;;;4972231;28;20086;-80
2020/12/24 12:52:54;;;;;;;10.68;5.45;;;6.20;99.90;;;;;;4974528;28;20066;-80
2020/12/24 12:55:21;;;;;;;8.15;5.47;;;6.20;99.90;;;;;;4970751;28;20074;-80
2020/12/24 12:57:47;;;;;;;6.80;5.05;;;6.20;99.90;;;;;;4969879;28;20472;-79
2020/12/24 13:00:14;;;;;;;7.00;5.13;;;6.20;99.90;;;;;;4976187;28;20087;-81
2020/12/24 13:02:41;;;;;;;6.07;5.07;;;6.30;99.90;;;;;;4974147;28;20059;-81
2020/12/24 13:05:07;;;;;;;8.82;5.20;;;6.30;99.90;;;;;;4970483;28;20082;-80
2020/12/24 13:07:35;;;;;;;6.45;5.25;;;6.30;99.90;;;;;;4973389;28;20147;-82
2020/12/24 13:10:01;;;;;;;7.18;5.07;;;6.30;99.90;;;;;;4972221;28;20042;-82
2020/12/24 13:12:28;;;;;;;5.88;4.55;;;6.30;99.90;;;;;;4976153;28;20078;-80
2020/12/24 13:14:54;;;;;;;6.45;4.80;;;6.30;99.90;;;;;;4969525;28;20631;-82
2020/12/24 13:17:21;;;;;;;7.28;5.55;;;6.30;99.90;;;;;;4983233;28;20050;-82
2020/12/24 13:19:48;;;;;;;5.65;4.95;;;6.30;99.90;;;;;;4977826;28;20090;-82
2020/12/24 13:22:15;;;;;;;10.00;5.85;;;6.40;99.90;;;;;;4979654;28;20074;-84